Time;durP1;ratioP1;P1;durP2;ratioP2;P2;SDS_P1;SDS_P2;PMS_P1;PMS_P2;Temp;Humidity;BMP_temperature;BMP_pressure;BME280_temperature;BME280_humidity;BME280_pressure;Samples;Min_cycle;Max_cycle;Signal;HPM_P1;HPM_P2
2022/05/12 00:01:17;;;;;;;19.33;13.43;;;;;;;10.19;77.03;98102.91;10274603;28;20069;-57
2022/05/12 00:06:16;;;;;;;16.48;11.73;;;;;;;10.24;77.85;98118.50;10275128;28;20022;-57
2022/05/12 00:11:15;;;;;;;13.88;9.43;;;;;;;10.18;77.05;98116.72;10280536;28;20041;-57
2022/05/12 00:16:14;;;;;;;11.32;7.32;;;;;;;10.11;77.81;98116.69;10266332;28;20508;-57
2022/05/12 00:21:13;;;;;;;14.23;7.70;;;;;;;9.98;77.65;98113.16;10278508;28;20053;-57
2022/05/12 00:26:12;;;;;;;10.77;6.90;;;;;;;9.94;77.33;98120.03;10278834;28;20036;-57
2022/05/12 00:31:11;;;;;;;13.52;7.28;;;;;;;9.88;77.39;98119.97;10260140;28;20153;-58
2022/05/12 00:36:10;;;;;;;14.50;9.52;;;;;;;9.84;78.02;98127.69;10276054;28;20037;-58
2022/05/12 00:41:09;;;;;;;13.32;8.20;;;;;;;9.82;78.29;98124.25;10269887;28;20057;-58
2022/05/12 00:46:12;;;;;;;12.60;8.43;;;;;;;9.76;78.30;98120.75;10280428;28;20485;-58
2022/05/12 00:51:14;;;;;;;12.25;8.85;;;;;;;9.61;79.06;98125.81;10269711;28;20057;-57
2022/05/12 00:56:18;;;;;;;15.27;9.90;;;;;;;9.59;79.47;98127.50;10270475;28;20073;-58
2022/05/12 01:01:17;;;;;;;20.58;11.18;;;;;;;9.54;79.04;98114.53;10262688;28;20176;-58
2022/05/12 01:06:16;;;;;;;19.52;11.48;;;;;;;9.56;79.57;98119.72;10274555;28;20045;-58
2022/05/12 01:11:18;;;;;;;16.60;10.10;;;;;;;9.52;79.83;98125.72;10268153;28;20807;-58
2022/05/12 01:16:32;;;;;;;15.15;9.68;;;;;;;9.49;79.79;98125.72;10270159;28;20078;-58
2022/05/12 01:21:32;;;;;;;13.75;8.05;;;;;;;9.45;79.93;98134.28;10277170;28;20077;-58
2022/05/12 01:26:32;;;;;;;13.35;8.65;;;;;;;9.37;80.07;98130.75;10273379;28;20472;-58
2022/05/12 01:31:31;;;;;;;13.75;7.75;;;;;;;9.27;80.61;98135.81;10231824;28;1116172;-58
2022/05/12 01:36:30;;;;;;;;;;;;;;;9.24;80.68;98133.19;10273863;28;20089;-58
2022/05/12 01:41:29;;;;;;;15.40;9.35;;;;;;;9.24;80.67;98134.91;10278723;28;19992;-58
2022/05/12 01:46:28;;;;;;;21.27;11.07;;;;;;;9.19;80.63;98129.69;10274500;28;20128;-58
2022/05/12 01:51:28;;;;;;;19.95;10.68;;;;;;;9.01;81.61;98126.91;10269575;28;20062;-58
2022/05/12 01:56:27;;;;;;;16.58;11.20;;;;;;;8.94;82.17;98142.34;10272393;28;20069;-58
2022/05/12 02:01:25;;;;;;;17.00;10.05;;;;;;;8.92;81.99;98138.88;10271463;28;20034;-58
2022/05/12 02:06:24;;;;;;;15.82;10.13;;;;;;;8.90;82.00;98148.38;10271815;28;20105;-58
2022/05/12 02:11:24;;;;;;;17.25;9.98;;;;;;;8.84;82.08;98153.44;10277238;28;20528;-58
2022/05/12 02:16:25;;;;;;;12.90;8.63;;;;;;;8.76;81.73;98157.66;10275747;28;20077;-58
2022/05/12 02:21:24;;;;;;;16.88;10.65;;;;;;;8.71;81.81;98159.31;10260583;28;20496;-58
2022/05/12 02:26:24;;;;;;;15.88;9.25;;;;;;;8.58;81.66;98162.59;10275327;28;20508;-58
2022/05/12 02:31:23;;;;;;;18.40;8.95;;;;;;;8.39;82.91;98161.47;10269043;28;20085;-57
2022/05/12 02:36:22;;;;;;;15.90;9.43;;;;;;;8.29;82.61;98163.94;10267864;28;20081;-58
2022/05/12 02:41:21;;;;;;;14.48;8.85;;;;;;;8.30;82.16;98151.88;10276101;28;20511;-58
2022/05/12 02:46:20;;;;;;;21.45;9.43;;;;;;;8.20;82.26;98150.88;10274501;28;20106;-58
2022/05/12 02:51:19;;;;;;;15.13;9.18;;;;;;;8.26;82.28;98157.84;10267109;28;20529;-58
2022/05/12 02:56:18;;;;;;;15.18;9.27;;;;;;;8.26;82.63;98170.78;10269494;28;20118;-57
2022/05/12 03:01:17;;;;;;;22.17;10.15;;;;;;;8.04;83.43;98154.94;10271795;28;20126;-58
2022/05/12 03:06:15;;;;;;;14.73;8.52;;;;;;;8.10;83.31;98161.91;10269005;28;20037;-58
2022/05/12 03:11:14;;;;;;;17.50;9.20;;;;;;;8.01;83.18;98154.91;10269624;28;20026;-58
2022/05/12 03:16:13;;;;;;;15.38;9.77;;;;;;;8.06;83.70;98183.38;10262740;28;20037;-58
2022/05/12 03:21:16;;;;;;;17.60;9.55;;;;;;;8.10;83.97;98174.81;10262390;28;20957;-58
2022/05/12 03:26:15;;;;;;;17.35;9.30;;;;;;;8.15;83.62;98173.19;10267752;28;20058;-57
2022/05/12 03:31:14;;;;;;;;;;;;;;;8.21;83.69;98182.75;10266864;28;20520;-58
2022/05/12 03:36:15;;;;;;;18.98;9.90;;;;;;;8.25;83.44;98184.56;10267612;28;20274;-58
2022/05/12 03:41:14;;;;;;;19.00;9.23;;;;;;;8.28;83.58;98194.94;10274269;28;20072;-58
2022/05/12 03:46:13;;;;;;;14.90;9.10;;;;;;;8.35;84.13;98201.06;10273860;28;20061;-58
2022/05/12 03:51:12;;;;;;;15.77;9.90;;;;;;;8.42;83.47;98202.91;10265307;28;20123;-58
2022/05/12 03:56:11;;;;;;;18.55;9.52;;;;;;;8.49;83.78;98190.06;10266266;28;20117;-57
2022/05/12 04:01:11;;;;;;;16.48;10.10;;;;;;;8.49;84.16;98197.81;10271736;28;20066;-58
2022/05/12 04:06:11;;;;;;;20.25;10.90;;;;;;;8.60;83.70;98198.00;10281628;28;20070;-57
2022/05/12 04:11:10;;;;;;;15.75;10.00;;;;;;;8.73;83.43;98204.19;10249545;28;20073;-58
2022/05/12 04:16:09;;;;;;;22.33;10.35;;;;;;;8.89;83.35;98208.72;10257033;28;20548;-58
2022/05/12 04:21:08;;;;;;;;;;;;;;;9.07;83.02;98210.69;10258270;28;20768;-58
2022/05/12 04:26:07;;;;;;;17.95;10.40;;;;;;;9.26;82.31;98210.91;10256804;28;20313;-57
2022/05/12 04:31:06;;;;;;;18.95;11.50;;;;;;;9.41;82.56;98195.53;10255312;28;20116;-57
2022/05/12 04:36:05;;;;;;;21.25;10.85;;;;;;;9.57;82.05;98192.25;10256752;28;20041;-58
2022/05/12 04:41:04;;;;;;;22.15;11.65;;;;;;;9.82;81.45;98212.38;10256353;28;20058;-58
2022/05/12 04:46:03;;;;;;;20.02;12.13;;;;;;;9.90;81.71;98221.94;10251133;28;20038;-58
2022/05/12 04:51:03;;;;;;;25.65;14.50;;;;;;;10.07;81.83;98216.03;10245491;28;20036;-58
2022/05/12 04:56:02;;;;;;;23.40;13.95;;;;;;;10.31;81.64;98221.44;10264042;28;20081;-58
2022/05/12 05:01:01;;;;;;;24.35;12.55;;;;;;;10.43;80.99;98228.44;10272976;28;20486;-58
2022/05/12 05:06:00;;;;;;;24.15;13.85;;;;;;;10.55;80.48;98223.31;10253217;28;20488;-58
2022/05/12 05:11:00;;;;;;;20.45;13.45;;;;;;;10.79;80.46;98213.94;10253997;28;20065;-58
2022/05/12 05:15:59;;;;;;;18.55;13.27;;;;;;;10.91;79.41;98198.47;10260686;28;20068;-58
2022/05/12 05:20:58;;;;;;;19.60;12.05;;;;;;;11.23;78.99;98210.72;10261414;28;20029;-58
2022/05/12 05:25:57;;;;;;;19.63;11.07;;;;;;;11.38;78.52;98212.50;10253870;28;20062;-57
2022/05/12 05:30:56;;;;;;;20.90;12.30;;;;;;;11.50;78.58;98211.66;10252239;28;20070;-58
2022/05/12 05:35:57;;;;;;;15.77;10.80;;;;;;;11.77;77.33;98211.72;10270587;28;20071;-57
2022/05/12 05:40:56;;;;;;;16.05;11.30;;;;;;;12.06;77.40;98216.97;10287723;28;20820;-58
2022/05/12 05:45:55;;;;;;;16.38;10.90;;;;;;;12.22;77.11;98209.16;10253232;28;20835;-58
2022/05/12 05:56:15;;;;;;;14.98;10.45;;;;;;;12.66;75.31;98201.31;10253012;28;20069;-58
2022/05/12 06:01:15;;;;;;;18.23;11.50;;;;;;;12.98;74.31;98212.50;10257237;28;20073;-58
2022/05/12 06:06:14;;;;;;;18.77;10.95;;;;;;;13.25;74.15;98211.56;10251761;28;20054;-58
2022/05/12 06:11:12;;;;;;;15.43;10.00;;;;;;;13.36;72.21;98196.75;10248936;28;20033;-58
2022/05/12 06:16:12;;;;;;;12.38;8.75;;;;;;;13.64;71.24;98204.44;10251307;28;20141;-58
2022/05/12 06:21:12;;;;;;;10.55;7.63;;;;;;;13.82;69.04;98204.34;10252148;28;20070;-58
2022/05/12 06:26:14;;;;;;;14.18;7.53;;;;;;;14.13;68.33;98206.72;10265261;28;20117;-58
2022/05/12 06:31:15;;;;;;;9.95;7.47;;;;;;;14.19;68.44;98184.03;10288744;28;20104;-58
2022/05/12 06:36:14;;;;;;;10.20;6.68;;;;;;;14.61;67.54;98196.69;10250944;28;20065;-58
2022/05/12 06:41:14;;;;;;;10.05;7.28;;;;;;;14.86;66.00;98194.72;10251698;28;20121;-58
2022/05/12 06:46:17;;;;;;;10.70;6.78;;;;;;;15.12;65.89;98190.94;10251145;28;20070;-58
2022/05/12 06:51:17;;;;;;;8.32;6.22;;;;;;;15.38;63.88;98187.97;10245576;28;20533;-59
2022/05/12 06:56:16;;;;;;;13.57;7.28;;;;;;;15.62;63.27;98184.16;10250905;28;20065;-58
2022/05/12 07:01:15;;;;;;;11.55;6.20;;;;;;;15.85;62.74;98182.09;10260755;28;20073;-59
2022/05/12 07:06:14;;;;;;;;;;;;;;;16.03;62.62;98174.84;10252368;28;20037;-58
2022/05/12 07:11:12;;;;;;;13.43;7.85;;;;;;;16.27;62.63;98178.81;10248793;28;20076;-58
2022/05/12 07:16:11;;;;;;;;;;;;;;;16.64;62.33;98181.66;10249758;28;20031;-58
2022/05/12 07:26:39;;;;;;;10.88;6.25;;;;;;;17.20;61.81;98170.97;10284886;28;20077;-58
2022/05/12 07:31:38;;;;;;;9.70;6.38;;;;;;;17.49;60.80;98162.44;10287578;28;20085;-58
2022/05/12 07:36:41;;;;;;;8.25;5.60;;;;;;;17.73;59.49;98152.28;10248156;28;20061;-58
2022/05/12 07:41:41;;;;;;;10.07;6.00;;;;;;;17.96;59.20;98157.03;10250165;28;20073;-58
2022/05/12 07:46:40;;;;;;;12.15;5.30;;;;;;;18.16;58.01;98157.41;10248250;28;20077;-59
2022/05/12 07:51:39;;;;;;;11.55;5.75;;;;;;;18.41;57.01;98151.53;10269660;28;20069;-58
2022/05/12 07:56:38;;;;;;;8.65;5.25;;;;;;;18.68;57.00;98146.44;10258197;28;20033;-58
2022/05/12 08:01:38;;;;;;;8.23;5.13;;;;;;;18.93;55.39;98155.41;10250977;28;20046;-59
2022/05/12 08:06:37;;;;;;;8.07;4.97;;;;;;;19.16;53.76;98149.47;10249684;28;20497;-59
2022/05/12 08:11:36;;;;;;;8.70;4.70;;;;;;;19.41;53.38;98154.00;10254635;28;20076;-58
2022/05/12 08:16:35;;;;;;;6.95;4.90;;;;;;;19.68;51.21;98141.81;10245835;28;20042;-59
2022/05/12 08:21:33;;;;;;;6.50;4.22;;;;;;;19.88;50.67;98138.50;10251855;28;20030;-59
2022/05/12 08:26:33;;;;;;;9.07;4.43;;;;;;;20.25;50.01;98134.66;10256853;28;20026;-59
2022/05/12 08:31:32;;;;;;;7.15;4.88;;;;;;;20.53;46.63;98125.84;10247214;28;20549;-59
2022/05/12 08:36:31;;;;;;;7.47;4.43;;;;;;;20.80;45.90;98126.66;10269496;28;20485;-59
2022/05/12 08:41:41;;;;;;;6.20;3.60;;;;;;;20.98;42.02;98115.38;10264463;28;20070;-59
2022/05/12 08:46:45;;;;;;;4.63;3.88;;;;;;;21.30;40.26;98110.72;10285112;28;20147;-59
2022/05/12 08:51:51;;;;;;;5.80;3.95;;;;;;;21.48;37.31;98119.72;10267143;28;20488;-58
2022/05/12 08:57:00;;;;;;;4.18;3.63;;;;;;;21.63;34.35;98113.78;10291989;28;20096;-58
2022/05/12 09:02:31;;;;;;;;;;;;;;;21.83;32.48;98120.03;10246678;28;20064;-57
2022/05/12 09:07:37;;;;;;;5.97;3.58;;;;;;;22.00;32.24;98122.91;10243666;28;20389;-59
2022/05/12 09:13:01;;;;;;;4.57;3.22;;;;;;;22.15;32.86;98114.31;10246282;28;20560;-58
2022/05/12 09:18:04;;;;;;;4.68;3.15;;;;;;;22.28;33.50;98114.69;10246833;28;20084;-58
2022/05/12 09:23:04;;;;;;;6.82;3.78;;;;;;;22.55;34.30;98106.47;10252839;28;20512;-58
2022/05/12 09:28:27;;;;;;;3.92;3.45;;;;;;;22.43;33.34;98110.50;10245909;28;20074;-58
2022/05/12 09:33:35;;;;;;;4.25;3.28;;;;;;;22.28;33.11;98055.66;10250261;28;20077;-59
2022/05/12 09:38:47;;;;;;;5.27;3.97;;;;;;;22.62;33.94;98060.28;10252124;28;20070;-58
2022/05/12 09:43:52;;;;;;;6.15;3.53;;;;;;;23.02;32.15;98100.84;10282289;28;20085;-59
2022/05/12 09:48:51;;;;;;;4.35;3.28;;;;;;;23.34;32.53;98101.16;10256950;28;20068;-59
2022/05/12 09:53:53;;;;;;;4.38;3.50;;;;;;;23.39;31.09;98094.69;10255788;28;20080;-58
2022/05/12 09:59:14;;;;;;;7.32;3.65;;;;;;;23.40;31.92;98093.78;10246348;28;20105;-58
2022/05/12 10:09:50;;;;;;;5.00;3.10;;;;;;;23.87;30.21;98083.63;10250149;28;20069;-58
2022/05/12 10:14:54;;;;;;;8.68;5.90;;;;;;;23.83;30.25;98074.97;10248603;28;20485;-58
2022/05/12 10:19:55;;;;;;;8.40;5.88;;;;;;;23.75;30.14;98067.41;10271653;28;20591;-58
2022/05/12 10:25:47;;;;;;;4.07;3.67;;;;;;;23.84;30.07;98066.94;10251066;28;20073;-58
2022/05/12 10:31:14;;;;;;;5.07;3.53;;;;;;;23.81;29.77;98060.94;10249133;28;20073;-59
2022/05/12 10:36:44;;;;;;;4.63;3.78;;;;;;;23.93;29.83;98055.00;10247263;28;20081;-57
2022/05/12 10:41:45;;;;;;;;;;;;;;;23.98;29.91;98052.13;10243205;28;20072;-57
2022/05/12 10:47:01;;;;;;;9.15;3.88;;;;;;;24.06;30.72;98042.00;10248815;28;20377;-58
2022/05/12 10:52:12;;;;;;;6.45;3.97;;;;;;;24.19;30.59;98023.69;10250175;28;20090;-58
2022/05/12 10:57:35;;;;;;;4.57;3.03;;;;;;;24.24;29.76;98029.63;10256336;28;20072;-57
2022/05/12 11:02:41;;;;;;;8.85;3.55;;;;;;;24.39;29.87;98015.53;10250960;28;20057;-58
2022/05/12 11:07:49;;;;;;;4.60;3.40;;;;;;;24.43;30.37;98013.59;10252171;28;20073;-57
2022/05/12 11:12:55;;;;;;;6.25;3.78;;;;;;;24.62;30.25;98003.72;10254384;28;20088;-57
2022/05/12 11:18:05;;;;;;;4.03;3.63;;;;;;;24.75;29.48;97982.66;10251241;28;20066;-57
2022/05/12 11:23:12;;;;;;;6.40;3.75;;;;;;;24.88;28.96;97997.00;10246917;28;20069;-57
2022/05/12 11:34:06;;;;;;;5.68;3.67;;;;;;;25.03;29.01;97968.72;10256433;28;20143;-57
2022/05/12 11:39:25;;;;;;;6.15;3.65;;;;;;;24.98;28.98;97975.25;10291924;28;20058;-58
2022/05/12 11:44:34;;;;;;;4.68;3.40;;;;;;;24.98;28.91;97967.28;10257762;28;20505;-57
2022/05/12 11:50:13;;;;;;;4.88;3.65;;;;;;;25.15;28.58;97956.56;10267298;28;20096;-57
2022/05/12 11:55:29;;;;;;;8.43;3.70;;;;;;;25.45;28.82;97948.63;10263250;28;20054;-58
2022/05/12 12:00:34;;;;;;;7.45;4.13;;;;;;;25.84;28.89;97943.75;10261556;28;20074;-58
2022/05/12 12:05:33;;;;;;;5.57;3.85;;;;;;;25.94;28.43;97939.56;10252381;28;20070;-58
2022/05/12 12:10:41;;;;;;;5.68;4.13;;;;;;;26.12;28.35;97924.31;10257173;28;20070;-57
2022/05/12 12:15:56;;;;;;;5.38;3.88;;;;;;;26.20;28.55;97929.19;10257669;28;20502;-58
2022/05/12 12:20:59;;;;;;;6.20;4.15;;;;;;;26.22;28.26;97929.94;10258059;28;20666;-57
2022/05/12 12:26:26;;;;;;;6.30;4.00;;;;;;;26.48;27.77;97918.50;10254759;28;20065;-58
2022/05/12 12:31:39;;;;;;;4.43;3.72;;;;;;;26.41;27.71;97889.72;10256666;28;20529;-57
2022/05/12 12:36:54;;;;;;;5.75;4.35;;;;;;;26.56;28.06;97897.59;10254735;28;20105;-58
2022/05/12 12:42:06;;;;;;;6.97;3.95;;;;;;;26.46;28.38;97893.78;10255791;28;20100;-58
2022/05/12 12:47:23;;;;;;;8.65;3.83;;;;;;;26.65;28.19;97884.63;10265161;28;20475;-57
2022/05/12 12:52:22;;;;;;;6.32;4.18;;;;;;;26.51;28.03;97865.13;10248910;28;20072;-57
2022/05/12 12:57:28;;;;;;;7.82;4.00;;;;;;;26.69;28.11;97840.91;10247307;28;20034;-57
2022/05/12 13:02:32;;;;;;;5.05;3.88;;;;;;;27.31;27.82;97862.56;10243906;28;20133;-57
2022/05/12 13:07:34;;;;;;;4.63;3.53;;;;;;;27.45;27.15;97842.09;10245353;28;20121;-57
2022/05/12 13:12:34;;;;;;;6.00;3.80;;;;;;;27.32;26.73;97842.09;10246987;28;20117;-57
2022/05/12 13:17:39;;;;;;;7.00;4.10;;;;;;;27.70;27.89;97843.94;10254064;28;20133;-57
2022/05/12 13:22:47;;;;;;;5.68;4.00;;;;;;;27.51;27.36;97844.38;10246671;28;20152;-57
2022/05/12 13:27:47;;;;;;;4.25;3.60;;;;;;;27.24;27.19;97837.28;10234626;28;20129;-57
2022/05/12 13:32:52;;;;;;;6.03;4.00;;;;;;;27.28;27.44;97840.56;10245223;28;20145;-57
2022/05/12 13:38:06;;;;;;;8.13;4.57;;;;;;;27.30;28.28;97836.00;10245575;28;20113;-57
2022/05/12 13:43:14;;;;;;;6.15;4.20;;;;;;;27.16;26.75;97840.44;10243283;28;20143;-57
2022/05/12 13:48:22;;;;;;;4.37;3.70;;;;;;;27.29;27.24;97820.97;10244772;28;20113;-57
2022/05/12 13:53:29;;;;;;;7.50;3.95;;;;;;;27.24;26.64;97837.28;10245115;28;20109;-57
2022/05/12 13:58:28;;;;;;;6.30;4.07;;;;;;;27.27;27.65;97818.41;10258544;28;20117;-57
2022/05/12 14:03:32;;;;;;;7.40;4.40;;;;;;;27.18;27.12;97813.72;10242023;28;20040;-57
2022/05/12 14:08:33;;;;;;;4.90;4.10;;;;;;;27.24;27.51;97815.97;10245311;28;20130;-57
2022/05/12 14:19:14;;;;;;;5.15;3.70;;;;;;;27.09;26.43;97809.84;10244033;28;20129;-57
2022/05/12 14:24:15;;;;;;;4.25;3.75;;;;;;;27.17;26.93;97804.88;10244497;28;20118;-57
2022/05/12 14:29:15;;;;;;;4.97;4.38;;;;;;;27.05;27.26;97802.16;10244136;28;20553;-57
2022/05/12 14:34:19;;;;;;;6.03;3.45;;;;;;;27.02;26.64;97797.06;10244121;28;20108;-58
2022/05/12 14:39:19;;;;;;;4.00;3.60;;;;;;;27.03;26.48;97801.44;10242595;28;20136;-58
2022/05/12 14:44:18;;;;;;;6.35;4.00;;;;;;;27.12;26.46;97791.00;10244934;28;20121;-58
2022/05/12 14:49:25;;;;;;;7.55;4.03;;;;;;;27.28;26.52;97787.28;10242643;28;20100;-58
2022/05/12 14:54:24;;;;;;;5.00;3.78;;;;;;;27.27;26.17;97791.78;10243743;28;20114;-58
2022/05/12 14:59:24;;;;;;;4.40;3.72;;;;;;;27.19;26.41;97788.78;10259927;28;20468;-57
2022/05/12 15:04:30;;;;;;;7.63;4.32;;;;;;;27.10;27.74;97786.75;10244264;28;20069;-57
2022/05/12 15:09:29;;;;;;;5.28;3.75;;;;;;;27.06;28.21;97795.91;10243697;28;20153;-57
2022/05/12 15:14:27;;;;;;;4.75;3.92;;;;;;;26.67;28.27;97806.38;10244039;28;20136;-57
2022/05/12 15:19:27;;;;;;;7.38;4.43;;;;;;;26.53;28.66;97799.34;10239921;28;20033;-57
2022/05/12 15:24:26;;;;;;;6.28;3.83;;;;;;;26.32;28.58;97809.56;10242428;28;20142;-57
2022/05/12 15:29:25;;;;;;;6.90;3.58;;;;;;;26.20;28.45;97793.50;10243989;28;20051;-57
2022/05/12 15:34:24;;;;;;;4.38;3.97;;;;;;;26.24;28.94;97797.69;10241624;28;20129;-57
2022/05/12 15:39:23;;;;;;;6.50;4.03;;;;;;;26.13;29.61;97801.00;10240740;28;20885;-58
2022/05/12 15:44:22;;;;;;;4.22;3.60;;;;;;;26.00;29.96;97794.78;10240380;28;20561;-57
2022/05/12 15:49:25;;;;;;;4.13;3.72;;;;;;;26.02;30.76;97808.78;10238156;28;20121;-58
2022/05/12 15:54:24;;;;;;;5.63;3.72;;;;;;;26.14;30.57;97813.34;10239190;28;20130;-58
2022/05/12 15:59:23;;;;;;;4.22;3.80;;;;;;;26.04;30.98;97813.09;10256765;28;20125;-57
2022/05/12 16:04:22;;;;;;;4.80;3.67;;;;;;;26.07;31.13;97802.25;10239239;28;20121;-58
2022/05/12 16:09:21;;;;;;;6.47;3.95;;;;;;;25.92;30.10;97819.16;10241374;28;20062;-58
2022/05/12 16:14:27;;;;;;;6.13;3.28;;;;;;;25.85;30.59;97820.50;10246400;28;20069;-58
2022/05/12 16:19:26;;;;;;;3.63;3.30;;;;;;;25.76;30.76;97821.91;10233910;28;20217;-57
2022/05/12 16:24:25;;;;;;;5.95;3.90;;;;;;;25.62;31.13;97816.59;10244566;28;20117;-57
2022/05/12 16:29:29;;;;;;;5.18;3.50;;;;;;;25.44;30.84;97815.88;10246588;28;20074;-58
2022/05/12 16:34:28;;;;;;;6.32;3.60;;;;;;;25.29;31.46;97821.19;10248483;28;20106;-57
2022/05/12 16:39:27;;;;;;;7.45;3.88;;;;;;;25.28;31.86;97827.44;10238517;28;20164;-58
2022/05/12 16:44:26;;;;;;;5.47;3.67;;;;;;;25.18;31.88;97828.06;10242086;28;20909;-57
2022/05/12 16:49:36;;;;;;;7.95;4.03;;;;;;;24.94;31.97;97809.13;10241281;28;20106;-58
2022/05/12 16:54:36;;;;;;;5.57;3.67;;;;;;;24.79;32.35;97810.84;10241298;28;20131;-57
2022/05/12 16:59:36;;;;;;;7.60;4.10;;;;;;;24.69;32.30;97821.13;10240676;28;20126;-57
2022/05/12 17:04:35;;;;;;;6.60;4.18;;;;;;;24.48;32.79;97829.34;10241664;28;20797;-57
2022/05/12 17:09:34;;;;;;;24.35;5.40;;;;;;;24.36;33.11;97840.66;10242322;28;20729;-57
2022/05/12 17:14:34;;;;;;;9.68;5.63;;;;;;;24.15;34.03;97841.81;10242635;28;20113;-58
2022/05/12 17:19:34;;;;;;;11.90;7.00;;;;;;;23.85;35.83;97838.09;10240362;28;20149;-57
2022/05/12 17:24:33;;;;;;;10.82;6.80;;;;;;;23.56;36.85;97849.34;10245517;28;20153;-58
2022/05/12 17:29:33;;;;;;;9.50;6.10;;;;;;;23.28;37.86;97861.34;10245629;28;20125;-57
2022/05/12 17:34:33;;;;;;;10.45;5.70;;;;;;;22.97;38.78;97865.50;10243623;28;20145;-57
2022/05/12 17:39:32;;;;;;;10.80;5.20;;;;;;;22.63;39.75;97873.38;10244337;28;20113;-57
2022/05/12 17:44:33;;;;;;;10.93;5.55;;;;;;;22.25;40.56;97874.25;10243086;28;20121;-57
2022/05/12 17:49:34;;;;;;;12.95;6.05;;;;;;;21.95;41.21;97881.75;10245388;28;20141;-57
2022/05/12 17:54:34;;;;;;;11.88;6.20;;;;;;;21.65;42.36;97884.81;10242515;28;20121;-57
2022/05/12 17:59:34;;;;;;;8.05;5.63;;;;;;;21.35;42.77;97892.28;10266691;28;20822;-57
2022/05/12 18:04:37;;;;;;;7.57;4.93;;;;;;;21.07;43.54;97903.94;10244643;28;20121;-57
2022/05/12 18:09:36;;;;;;;11.23;5.15;;;;;;;20.78;44.13;97901.66;10232022;28;20542;-57
2022/05/12 18:14:36;;;;;;;15.48;4.93;;;;;;;20.45;44.20;97909.97;10243877;28;20122;-57
2022/05/12 18:19:35;;;;;;;9.57;5.38;;;;;;;20.15;44.77;97911.94;10241240;28;20146;-57
2022/05/12 18:24:36;;;;;;;7.57;5.32;;;;;;;19.87;45.00;97924.31;10245654;28;20117;-57
2022/05/12 18:29:35;;;;;;;6.82;4.90;;;;;;;19.65;45.78;97928.66;10243370;28;20165;-58
2022/05/12 18:34:34;;;;;;;7.43;5.13;;;;;;;19.37;46.43;97940.09;10244784;28;20118;-57
2022/05/12 18:39:33;;;;;;;7.90;5.15;;;;;;;19.09;46.80;97940.13;10243340;28;20034;-58
2022/05/12 18:44:32;;;;;;;7.72;4.78;;;;;;;18.91;46.87;97951.25;10244093;28;20137;-57
2022/05/12 18:49:31;;;;;;;9.27;5.32;;;;;;;18.81;46.88;97946.25;10244611;28;20030;-57
2022/05/12 18:54:30;;;;;;;9.48;5.78;;;;;;;18.70;47.14;97947.50;10242603;28;20562;-57
2022/05/12 18:59:29;;;;;;;8.30;5.25;;;;;;;18.58;48.02;97956.59;10264871;28;20375;-57
2022/05/12 19:04:28;;;;;;;8.52;5.35;;;;;;;18.45;48.51;97968.38;10284133;28;20025;-58
2022/05/12 19:09:27;;;;;;;;;;;;;;;18.27;49.37;97969.75;10241209;28;20034;-58
2022/05/12 19:14:25;;;;;;;8.13;5.30;;;;;;;18.03;50.26;97964.28;10236281;28;19924;-58
2022/05/12 19:19:24;;;;;;;;;;;;;;;17.77;51.48;97967.63;10244030;28;20038;-58
2022/05/12 19:24:23;;;;;;;9.70;6.20;;;;;;;17.66;52.24;97982.75;10243260;28;19925;-58
2022/05/12 19:29:22;;;;;;;;;;;;;;;17.58;52.91;97984.72;10238871;28;20054;-59
2022/05/12 19:34:21;;;;;;;11.97;6.67;;;;;;;17.54;52.71;97983.91;10235115;28;19953;-58
2022/05/12 19:39:26;;;;;;;18.88;9.70;;;;;;;17.42;53.21;97979.00;10237986;28;20125;-58
2022/05/12 19:44:26;;;;;;;25.48;12.10;;;;;;;17.37;53.89;97986.97;10242151;28;20121;-58
2022/05/12 19:49:25;;;;;;;28.60;12.77;;;;;;;17.24;54.73;97994.28;10243714;28;20121;-58
2022/05/12 19:54:23;;;;;;;;;;;;;;;17.09;55.02;97987.63;10245310;28;20027;-58
2022/05/12 19:59:22;;;;;;;9.27;5.93;;;;;;;16.90;55.02;97996.81;10269617;28;19918;-58
2022/05/12 20:04:21;;;;;;;;;;;;;;;16.66;55.35;97998.19;10274493;28;20644;-58
2022/05/12 20:09:20;;;;;;;10.48;5.63;;;;;;;16.48;55.41;97997.69;10249978;28;19964;-58
2022/05/12 20:14:21;;;;;;;11.20;6.78;;;;;;;16.41;55.45;97993.47;10247028;28;20037;-58
2022/05/12 20:19:22;;;;;;;14.90;7.00;;;;;;;16.34;55.97;97989.25;10252877;28;20183;-58
2022/05/12 20:24:22;;;;;;;10.70;7.10;;;;;;;16.30;56.36;97996.31;10252468;28;20121;-58
2022/05/12 20:29:21;;;;;;;13.27;7.53;;;;;;;16.05;58.37;97974.13;10248321;28;20807;-58
2022/05/12 20:34:20;;;;;;;;;;;;;;;16.12;59.27;97990.59;10249430;28;20441;-58
2022/05/12 20:39:19;;;;;;;26.38;11.40;;;;;;;16.04;59.92;97977.63;10248973;28;19917;-58
2022/05/12 20:44:18;;;;;;;18.88;9.40;;;;;;;15.95;59.77;97980.41;10247419;28;20133;-58
2022/05/12 20:49:17;;;;;;;;;;;;;;;15.79;60.22;97977.25;10249220;28;20053;-58
2022/05/12 20:54:16;;;;;;;10.20;7.00;;;;;;;15.64;60.27;97980.94;10248122;28;19924;-57
2022/05/12 20:59:15;;;;;;;15.27;7.68;;;;;;;15.51;61.36;97976.84;10268064;28;20048;-58
2022/05/12 21:04:14;;;;;;;22.58;9.63;;;;;;;15.41;63.00;97991.81;10277416;28;20026;-58
2022/05/12 21:09:13;;;;;;;;;;;;;;;15.33;63.81;97993.69;10239899;28;20034;-59
2022/05/12 21:14:16;;;;;;;12.95;6.60;;;;;;;15.12;65.20;97982.69;10247969;28;19985;-58
2022/05/12 21:19:15;;;;;;;13.02;7.38;;;;;;;14.98;65.19;97989.88;10247127;28;20129;-58
2022/05/12 21:24:14;;;;;;;;;;;;;;;14.95;65.27;97990.78;10246658;28;20416;-58
2022/05/12 21:29:12;;;;;;;13.75;7.57;;;;;;;14.92;64.68;97987.34;10254814;28;19929;-58
2022/05/12 21:34:11;;;;;;;11.07;7.95;;;;;;;14.82;64.72;97973.56;10271518;28;20045;-58
2022/05/12 21:39:11;;;;;;;16.25;8.65;;;;;;;14.77;65.53;97973.63;10241586;28;20604;-58
2022/05/12 21:44:10;;;;;;;13.93;8.23;;;;;;;14.63;66.08;97975.53;10250325;28;20134;-58
2022/05/12 21:49:09;;;;;;;10.25;7.90;;;;;;;14.52;66.15;97972.19;10249576;28;20096;-58
2022/05/12 21:54:08;;;;;;;12.13;8.15;;;;;;;14.42;66.45;97976.69;10238941;28;20069;-58
2022/05/12 22:04:29;;;;;;;11.57;8.45;;;;;;;14.12;68.49;97964.88;10245806;28;20074;-58
2022/05/12 22:09:32;;;;;;;17.55;11.48;;;;;;;14.14;68.22;97969.19;10252096;28;20062;-58
2022/05/12 22:14:35;;;;;;;15.18;9.65;;;;;;;14.11;68.70;97968.38;10250613;28;20072;-58
2022/05/12 22:19:34;;;;;;;13.75;9.98;;;;;;;14.04;69.22;97964.09;10250764;28;20121;-58
2022/05/12 22:24:33;;;;;;;13.43;9.43;;;;;;;13.95;69.46;97967.66;10251172;28;20070;-59
2022/05/12 22:29:32;;;;;;;;;;;;;;;13.87;69.38;97972.97;10248401;28;20114;-59
2022/05/12 22:34:31;;;;;;;14.45;9.07;;;;;;;13.79;69.83;97969.56;10252002;28;19913;-59
2022/05/12 22:39:31;;;;;;;14.18;9.00;;;;;;;13.69;70.17;97967.94;10252512;28;20062;-59
2022/05/12 22:44:30;;;;;;;13.43;9.25;;;;;;;13.54;70.64;97954.19;10253778;28;20081;-59
2022/05/12 22:49:29;;;;;;;12.95;9.20;;;;;;;13.52;70.89;97962.88;10265119;28;20041;-59
2022/05/12 22:54:30;;;;;;;12.35;8.85;;;;;;;13.46;70.79;97960.31;10268071;28;20077;-59
2022/05/12 22:59:29;;;;;;;12.25;8.73;;;;;;;13.27;71.13;97931.81;10252749;28;20077;-59
2022/05/12 23:04:28;;;;;;;11.23;8.05;;;;;;;13.30;71.14;97956.97;10252061;28;20069;-59
2022/05/12 23:09:27;;;;;;;12.88;9.00;;;;;;;13.19;71.96;97959.69;10251337;28;20114;-59
2022/05/12 23:14:27;;;;;;;18.65;10.43;;;;;;;13.14;72.07;97949.31;10251571;28;20062;-59
2022/05/12 23:24:44;;;;;;;13.95;10.10;;;;;;;12.82;73.02;97946.06;10250576;28;20062;-59
2022/05/12 23:29:43;;;;;;;12.90;9.90;;;;;;;12.71;73.22;97943.53;10251459;28;20148;-59
2022/05/12 23:34:42;;;;;;;14.73;10.40;;;;;;;12.59;73.68;97944.47;10246819;28;20735;-59
2022/05/12 23:39:41;;;;;;;15.82;10.38;;;;;;;12.47;74.10;97942.81;10244202;28;20026;-59
2022/05/12 23:44:40;;;;;;;15.43;10.30;;;;;;;12.39;74.79;97941.09;10245757;28;20030;-59
2022/05/12 23:49:39;;;;;;;14.60;10.27;;;;;;;12.33;75.02;97935.97;10244755;28;20492;-59
2022/05/12 23:54:38;;;;;;;;;;;;;;;12.32;75.13;97939.41;10237413;28;20066;-59
2022/05/12 23:59:37;;;;;;;14.43;9.50;;;;;;;12.28;74.87;97931.63;10245767;28;19924;-59
